Time,TemperatureF,DewpointF,PressureIn,WindDirection,WindDirectionDegrees,WindSpeedMPH,WindSpeedGustMPH,Humidity,HourlyPrecipIn,Conditions,Clouds,dailyrainin,SoftwareType,DateUTC
2013-11-15 00:00:00,21.6,18.9,30.16,NNW,338,0.0,0.0,89,0.00,,,0.00,VWS V14.01,2013-11-15 05:00:00,
2013-11-15 00:01:00,21.6,18.9,30.16,NNW,338,0.0,0.0,89,0.00,,,0.00,VWS V14.01,2013-11-15 05:01:00,
2013-11-15 00:06:00,21.6,18.9,30.16,NNW,338,0.0,0.0,89,0.00,,,0.00,VWS V14.01,2013-11-15 05:06:00,
2013-11-15 00:30:00,20.5,17.8,30.16,SE,135,0.4,0.4,89,0.00,,,0.00,VWS V14.01,2013-11-15 05:30:00,
2013-11-15 00:35:00,20.5,17.8,30.16,SE,135,0.4,0.4,89,0.00,,,0.00,VWS V14.01,2013-11-15 05:35:00,
2013-11-15 00:36:00,20.5,17.8,30.16,SE,135,0.4,0.4,89,0.00,,,0.00,VWS V14.01,2013-11-15 05:36:00,
2013-11-15 00:40:00,20.5,17.8,30.16,SE,135,0.4,0.4,89,0.00,,,0.00,VWS V14.01,2013-11-15 05:40:00,
2013-11-15 00:59:00,20.5,17.8,30.16,SE,135,0.4,0.4,89,0.00,,,0.00,VWS V14.01,2013-11-15 05:59:00,
2013-11-15 01:00:00,20.5,17.8,30.16,SE,135,0.4,0.4,89,0.00,,,0.00,VWS V14.01,2013-11-15 06:00:00,
2013-11-15 01:01:00,20.3,17.6,30.15,ESE,112,0.0,0.0,89,0.00,,,0.00,VWS V14.01,2013-11-15 06:01:00,
2013-11-15 01:04:00,20.3,17.6,30.15,ESE,112,0.0,0.0,89,0.00,,,0.00,VWS V14.01,2013-11-15 06:04:00,
2013-11-15 01:05:00,20.3,17.6,30.15,ESE,112,0.0,0.0,89,0.00,,,0.00,VWS V14.01,2013-11-15 06:05:00,
2013-11-15 01:06:00,20.3,17.6,30.15,ESE,112,0.0,0.0,89,0.00,,,0.00,VWS V14.01,2013-11-15 06:06:00,
2013-11-15 01:10:00,20.3,17.6,30.15,ESE,112,0.0,0.0,89,0.00,,,0.00,VWS V14.01,2013-11-15 06:10:00,
2013-11-15 01:11:00,20.3,17.6,30.15,ESE,112,0.0,0.0,89,0.00,,,0.00,VWS V14.01,2013-11-15 06:11:00,
2013-11-15 01:30:00,20.2,17.2,30.15,ESE,112,0.0,0.0,88,0.00,,,0.00,VWS V14.01,2013-11-15 06:30:00,
2013-11-15 01:31:00,20.0,17.0,30.15,ESE,112,0.0,0.0,88,0.00,,,0.00,VWS V14.01,2013-11-15 06:31:00,
2013-11-15 01:35:00,20.0,17.0,30.15,ESE,112,0.0,0.0,88,0.00,,,0.00,VWS V14.01,2013-11-15 06:35:00,
2013-11-15 01:36:00,20.0,17.0,30.15,ESE,112,0.0,0.0,88,0.00,,,0.00,VWS V14.01,2013-11-15 06:36:00,
2013-11-15 01:40:00,20.0,17.0,30.15,ESE,112,0.0,0.0,88,0.00,,,0.00,VWS V14.01,2013-11-15 06:40:00,
2013-11-15 01:59:00,20.0,17.0,30.15,ESE,112,0.0,0.0,88,0.00,,,0.00,VWS V14.01,2013-11-15 06:59:00,
2013-11-15 02:00:00,19.4,17.0,30.16,ESE,112,0.0,0.0,90,0.00,,,0.00,VWS V14.01,2013-11-15 07:00:00,
2013-11-15 02:01:00,19.4,17.0,30.16,ESE,112,0.0,0.0,90,0.00,,,0.00,VWS V14.01,2013-11-15 07:01:00,
2013-11-15 02:04:00,19.4,17.0,30.16,ESE,112,0.0,0.0,90,0.00,,,0.00,VWS V14.01,2013-11-15 07:04:00,
2013-11-15 02:05:00,19.4,17.0,30.16,ESE,112,0.0,0.0,90,0.00,,,0.00,VWS V14.01,2013-11-15 07:05:00,
2013-11-15 02:06:00,19.4,17.0,30.16,ESE,112,0.0,0.0,90,0.00,,,0.00,VWS V14.01,2013-11-15 07:06:00,
2013-11-15 02:07:00,19.4,17.0,30.16,ESE,112,0.0,0.0,90,0.00,,,0.00,VWS V14.01,2013-11-15 07:07:00,
2013-11-15 02:10:00,19.4,17.0,30.16,ESE,112,0.0,0.0,90,0.00,,,0.00,VWS V14.01,2013-11-15 07:10:00,
2013-11-15 02:22:00,19.4,17.0,30.16,ESE,112,0.0,0.0,90,0.00,,,0.00,VWS V14.01,2013-11-15 07:22:00,
2013-11-15 02:30:00,19.3,16.9,30.16,SE,135,0.0,0.0,90,0.00,,,0.00,VWS V14.01,2013-11-15 07:30:00,
2013-11-15 02:31:00,19.4,17.0,30.16,SE,135,0.0,0.0,90,0.00,,,0.00,VWS V14.01,2013-11-15 07:31:00,
2013-11-15 02:35:00,19.4,17.0,30.16,SE,135,0.0,0.0,90,0.00,,,0.00,VWS V14.01,2013-11-15 07:35:00,
2013-11-15 02:37:00,19.4,17.0,30.16,SE,135,0.0,0.0,90,0.00,,,0.00,VWS V14.01,2013-11-15 07:37:00,
2013-11-15 02:40:00,19.4,17.0,30.16,SE,135,0.0,0.0,90,0.00,,,0.00,VWS V14.01,2013-11-15 07:40:00,
2013-11-15 02:59:00,19.4,17.0,30.16,SE,135,0.0,0.0,90,0.00,,,0.00,VWS V14.01,2013-11-15 07:59:00,
2013-11-15 03:00:00,18.7,16.0,30.16,SE,135,0.0,0.0,89,0.00,,,0.00,VWS V14.01,2013-11-15 08:00:00,
2013-11-15 03:01:00,18.7,16.0,30.16,SE,135,0.0,0.0,89,0.00,,,0.00,VWS V14.01,2013-11-15 08:01:00,
2013-11-15 03:05:00,18.7,16.0,30.16,SE,135,0.0,0.0,89,0.00,,,0.00,VWS V14.01,2013-11-15 08:05:00,
2013-11-15 03:06:00,18.7,16.0,30.16,SE,135,0.0,0.0,89,0.00,,,0.00,VWS V14.01,2013-11-15 08:06:00,
2013-11-15 03:10:00,18.7,16.0,30.16,SE,135,0.0,0.0,89,0.00,,,0.00,VWS V14.01,2013-11-15 08:10:00,
2013-11-15 03:30:00,18.7,16.0,30.14,SE,135,0.0,0.0,89,0.00,,,0.00,VWS V14.01,2013-11-15 08:30:00,
2013-11-15 03:31:00,18.9,15.9,30.14,SE,135,0.0,0.0,88,0.00,,,0.00,VWS V14.01,2013-11-15 08:31:00,
2013-11-15 03:35:00,18.9,15.9,30.14,SE,135,0.0,0.0,88,0.00,,,0.00,VWS V14.01,2013-11-15 08:35:00,
2013-11-15 03:36:00,18.9,15.9,30.14,SE,135,0.0,0.0,88,0.00,,,0.00,VWS V14.01,2013-11-15 08:36:00,
2013-11-15 03:40:00,18.9,15.9,30.14,SE,135,0.0,0.0,88,0.00,,,0.00,VWS V14.01,2013-11-15 08:40:00,
2013-11-15 03:52:00,18.9,15.9,30.14,SE,135,0.0,0.0,88,0.00,,,0.00,VWS V14.01,2013-11-15 08:52:00,
2013-11-15 03:59:00,18.9,15.9,30.14,SE,135,0.0,0.0,88,0.00,,,0.00,VWS V14.01,2013-11-15 08:59:00,
2013-11-15 04:00:00,18.5,15.8,30.15,ESE,112,0.0,0.0,89,0.00,,,0.00,VWS V14.01,2013-11-15 09:00:00,
2013-11-15 04:04:00,18.5,15.8,30.15,ESE,112,0.0,0.0,89,0.00,,,0.00,VWS V14.01,2013-11-15 09:04:00,
2013-11-15 04:05:00,18.5,15.8,30.15,ESE,112,0.0,0.0,89,0.00,,,0.00,VWS V14.01,2013-11-15 09:05:00,
2013-11-15 04:06:00,18.5,15.8,30.15,ESE,112,0.0,0.0,89,0.00,,,0.00,VWS V14.01,2013-11-15 09:06:00,
2013-11-15 04:09:00,18.5,15.8,30.15,ESE,112,0.0,0.0,89,0.00,,,0.00,VWS V14.01,2013-11-15 09:09:00,
2013-11-15 04:30:00,17.8,14.6,30.15,ESE,112,0.0,0.0,87,0.00,,,0.00,VWS V14.01,2013-11-15 09:30:00,
2013-11-15 04:35:00,17.6,14.7,30.15,ESE,112,0.0,0.0,88,0.00,,,0.00,VWS V14.01,2013-11-15 09:35:00,
2013-11-15 04:36:00,17.6,14.7,30.15,ESE,112,0.0,0.0,88,0.00,,,0.00,VWS V14.01,2013-11-15 09:36:00,
2013-11-15 04:40:00,17.6,14.7,30.15,ESE,112,0.0,0.0,88,0.00,,,0.00,VWS V14.01,2013-11-15 09:40:00,
2013-11-15 04:59:00,17.6,14.7,30.15,ESE,112,0.0,0.0,88,0.00,,,0.00,VWS V14.01,2013-11-15 09:59:00,
2013-11-15 05:00:00,18.0,15.1,30.16,East,90,0.0,0.0,88,0.00,,,0.00,VWS V14.01,2013-11-15 10:00:00,
2013-11-15 05:04:00,18.0,15.1,30.16,East,90,0.0,0.0,88,0.00,,,0.00,VWS V14.01,2013-11-15 10:04:00,
2013-11-15 05:05:00,18.0,15.1,30.16,East,90,0.0,0.0,88,0.00,,,0.00,VWS V14.01,2013-11-15 10:05:00,
2013-11-15 05:10:00,18.0,15.1,30.16,East,90,0.0,0.0,88,0.00,,,0.00,VWS V14.01,2013-11-15 10:10:00,
2013-11-15 05:17:00,18.0,15.1,30.16,East,90,0.0,0.0,88,0.00,,,0.00,VWS V14.01,2013-11-15 10:17:00,
2013-11-15 05:30:00,18.4,15.7,30.16,WNW,292,0.0,0.0,89,0.00,,,0.00,VWS V14.01,2013-11-15 10:30:00,
2013-11-15 05:31:00,18.4,15.7,30.16,WNW,292,0.0,0.0,89,0.00,,,0.00,VWS V14.01,2013-11-15 10:31:00,
2013-11-15 05:35:00,18.4,15.7,30.16,WNW,292,0.0,0.0,89,0.00,,,0.00,VWS V14.01,2013-11-15 10:35:00,
2013-11-15 05:36:00,18.4,15.7,30.16,WNW,292,0.0,0.0,89,0.00,,,0.00,VWS V14.01,2013-11-15 10:36:00,
2013-11-15 05:40:00,18.4,15.7,30.16,WNW,292,0.0,0.0,89,0.00,,,0.00,VWS V14.01,2013-11-15 10:40:00,
2013-11-15 05:41:00,18.4,15.7,30.16,WNW,292,0.0,0.0,89,0.00,,,0.00,VWS V14.01,2013-11-15 10:41:00,
2013-11-15 05:59:00,18.4,15.7,30.16,WNW,292,0.0,0.0,89,0.00,,,0.00,VWS V14.01,2013-11-15 10:59:00,
2013-11-15 06:00:00,18.2,15.5,30.16,ESE,112,0.0,0.0,89,0.00,,,0.00,VWS V14.01,2013-11-15 11:00:00,
2013-11-15 06:05:00,18.2,15.5,30.16,ESE,112,0.0,0.0,89,0.00,,,0.00,VWS V14.01,2013-11-15 11:05:00,
2013-11-15 06:06:00,18.2,15.5,30.16,ESE,112,0.0,0.0,89,0.00,,,0.00,VWS V14.01,2013-11-15 11:06:00,
2013-11-15 06:10:00,18.2,15.5,30.16,ESE,112,0.0,0.0,89,0.00,,,0.00,VWS V14.01,2013-11-15 11:10:00,
2013-11-15 06:17:00,18.2,15.5,30.16,ESE,112,0.0,0.0,89,0.00,,,0.00,VWS V14.01,2013-11-15 11:17:00,
2013-11-15 06:30:00,18.7,16.0,30.16,East,90,0.0,0.0,89,0.00,,,0.00,VWS V14.01,2013-11-15 11:30:00,
2013-11-15 06:35:00,18.7,16.0,30.16,East,90,0.0,0.0,89,0.00,,,0.00,VWS V14.01,2013-11-15 11:35:00,
2013-11-15 06:36:00,18.7,16.0,30.16,East,90,0.0,0.0,89,0.00,,,0.00,VWS V14.01,2013-11-15 11:36:00,
2013-11-15 06:40:00,18.7,16.0,30.16,East,90,0.0,0.0,89,0.00,,,0.00,VWS V14.01,2013-11-15 11:40:00,
2013-11-15 06:59:00,18.7,16.0,30.16,East,90,0.0,0.0,89,0.00,,,0.00,VWS V14.01,2013-11-15 11:59:00,
2013-11-15 07:00:00,18.9,16.5,30.18,East,90,0.0,0.0,90,0.00,,,0.00,VWS V14.01,2013-11-15 12:00:00,
2013-11-15 07:05:00,18.9,16.5,30.18,East,90,0.0,0.0,90,0.00,,,0.00,VWS V14.01,2013-11-15 12:05:00,
2013-11-15 07:10:00,18.9,16.5,30.18,East,90,0.0,0.0,90,0.00,,,0.00,VWS V14.01,2013-11-15 12:10:00,
2013-11-15 07:21:00,18.9,16.5,30.18,East,90,0.0,0.0,90,0.00,,,0.00,VWS V14.01,2013-11-15 12:21:00,
2013-11-15 07:30:00,19.1,16.1,30.19,SE,135,0.0,0.0,88,0.00,,,0.00,VWS V14.01,2013-11-15 12:30:00,
2013-11-15 07:35:00,19.1,16.1,30.19,SE,135,0.0,0.0,88,0.00,,,0.00,VWS V14.01,2013-11-15 12:35:00,
2013-11-15 07:36:00,19.1,16.1,30.19,SE,135,0.0,0.0,88,0.00,,,0.00,VWS V14.01,2013-11-15 12:36:00,
2013-11-15 07:40:00,19.1,16.1,30.19,SE,135,0.0,0.0,88,0.00,,,0.00,VWS V14.01,2013-11-15 12:40:00,
2013-11-15 07:59:00,19.1,16.1,30.19,SE,135,0.0,0.0,88,0.00,,,0.00,VWS V14.01,2013-11-15 12:59:00,
2013-11-15 08:00:00,22.9,19.9,30.19,North,0,0.0,0.0,88,0.00,,,0.00,VWS V14.01,2013-11-15 13:00:00,
2013-11-15 08:05:00,22.9,19.9,30.19,North,0,0.0,0.0,88,0.00,,,0.00,VWS V14.01,2013-11-15 13:05:00,
2013-11-15 08:10:00,22.9,19.9,30.19,North,0,0.0,0.0,88,0.00,,,0.00,VWS V14.01,2013-11-15 13:10:00,
2013-11-15 08:30:00,28.1,23.6,30.19,East,90,0.2,0.2,83,0.00,,,0.00,VWS V14.01,2013-11-15 13:30:00,
2013-11-15 08:31:00,28.1,23.6,30.19,East,90,0.2,0.2,83,0.00,,,0.00,VWS V14.01,2013-11-15 13:31:00,
2013-11-15 08:35:00,28.1,23.6,30.19,East,90,0.2,0.2,83,0.00,,,0.00,VWS V14.01,2013-11-15 13:35:00,
2013-11-15 08:36:00,28.1,23.6,30.19,East,90,0.2,0.2,83,0.00,,,0.00,VWS V14.01,2013-11-15 13:36:00,
2013-11-15 08:40:00,28.1,23.6,30.19,East,90,0.2,0.2,83,0.00,,,0.00,VWS V14.01,2013-11-15 13:40:00,
2013-11-15 08:59:00,28.1,23.6,30.19,East,90,0.2,0.2,83,0.00,,,0.00,VWS V14.01,2013-11-15 13:59:00,
2013-11-15 09:00:00,33.8,26.1,30.19,ESE,112,0.4,0.4,73,0.00,,,0.00,VWS V14.01,2013-11-15 14:00:00,
2013-11-15 09:05:00,33.8,26.1,30.19,ESE,112,0.4,0.4,73,0.00,,,0.00,VWS V14.01,2013-11-15 14:05:00,
2013-11-15 09:06:00,33.8,26.1,30.19,ESE,112,0.4,0.4,73,0.00,,,0.00,VWS V14.01,2013-11-15 14:06:00,
2013-11-15 09:10:00,33.8,26.1,30.19,ESE,112,0.4,0.4,73,0.00,,,0.00,VWS V14.01,2013-11-15 14:10:00,
2013-11-15 09:15:00,33.8,26.1,30.19,ESE,112,0.4,0.4,73,0.00,,,0.00,VWS V14.01,2013-11-15 14:15:00,
2013-11-15 09:30:00,39.8,28.6,30.19,ESE,112,1.3,1.3,64,0.00,,,0.00,VWS V14.01,2013-11-15 14:30:00,
2013-11-15 09:31:00,39.8,28.6,30.19,ESE,112,1.3,1.3,64,0.00,,,0.00,VWS V14.01,2013-11-15 14:31:00,
2013-11-15 09:35:00,39.8,28.6,30.19,ESE,112,1.3,1.3,64,0.00,,,0.00,VWS V14.01,2013-11-15 14:35:00,
2013-11-15 09:36:00,39.8,28.6,30.19,ESE,112,1.3,1.3,64,0.00,,,0.00,VWS V14.01,2013-11-15 14:36:00,
2013-11-15 09:40:00,39.8,28.6,30.19,ESE,112,1.3,1.3,64,0.00,,,0.00,VWS V14.01,2013-11-15 14:40:00,
2013-11-15 09:59:00,39.8,28.6,30.19,ESE,112,1.3,1.3,64,0.00,,,0.00,VWS V14.01,2013-11-15 14:59:00,
2013-11-15 10:00:00,41.6,26.6,30.19,SE,135,1.1,1.1,55,0.00,,,0.00,VWS V14.01,2013-11-15 15:00:00,
2013-11-15 10:04:00,41.6,26.6,30.19,SE,135,1.1,1.1,55,0.00,,,0.00,VWS V14.01,2013-11-15 15:04:00,
2013-11-15 10:05:00,41.6,26.6,30.19,SE,135,1.1,1.1,55,0.00,,,0.00,VWS V14.01,2013-11-15 15:05:00,
2013-11-15 10:09:00,41.6,26.6,30.19,SE,135,1.1,1.1,55,0.00,,,0.00,VWS V14.01,2013-11-15 15:09:00,
2013-11-15 10:10:00,41.6,26.6,30.19,SE,135,1.1,1.1,55,0.00,,,0.00,VWS V14.01,2013-11-15 15:10:00,
2013-11-15 10:30:00,44.6,28.5,30.18,South,180,1.6,1.6,53,0.00,,,0.00,VWS V14.01,2013-11-15 15:30:00,
2013-11-15 10:31:00,44.6,28.5,30.18,South,180,1.6,1.6,53,0.00,,,0.00,VWS V14.01,2013-11-15 15:31:00,
2013-11-15 10:32:00,44.6,28.5,30.18,South,180,1.6,1.6,53,0.00,,,0.00,VWS V14.01,2013-11-15 15:32:00,
2013-11-15 10:35:00,44.6,28.5,30.18,South,180,1.6,1.6,53,0.00,,,0.00,VWS V14.01,2013-11-15 15:35:00,
2013-11-15 10:36:00,44.6,28.5,30.18,South,180,1.6,1.6,53,0.00,,,0.00,VWS V14.01,2013-11-15 15:36:00,
2013-11-15 10:37:00,44.6,28.5,30.18,South,180,1.6,1.6,53,0.00,,,0.00,VWS V14.01,2013-11-15 15:37:00,
2013-11-15 10:40:00,44.6,28.5,30.18,South,180,1.6,1.6,53,0.00,,,0.00,VWS V14.01,2013-11-15 15:40:00,
2013-11-15 10:54:00,44.6,28.5,30.18,South,180,1.6,1.6,53,0.00,,,0.00,VWS V14.01,2013-11-15 15:54:00,
2013-11-15 10:59:00,47.0,26.8,30.17,SE,135,2.0,2.0,45,0.00,,,0.00,VWS V14.01,2013-11-15 15:59:00,
2013-11-15 11:00:00,47.0,26.8,30.17,SE,135,2.0,2.0,45,0.00,,,0.00,VWS V14.01,2013-11-15 16:00:00,
2013-11-15 11:05:00,47.0,26.8,30.17,SE,135,2.0,2.0,45,0.00,,,0.00,VWS V14.01,2013-11-15 16:05:00,
2013-11-15 11:09:00,47.0,26.8,30.17,SE,135,2.0,2.0,45,0.00,,,0.00,VWS V14.01,2013-11-15 16:09:00,
2013-11-15 11:10:00,47.0,26.8,30.17,SE,135,2.0,2.0,45,0.00,,,0.00,VWS V14.01,2013-11-15 16:10:00,
2013-11-15 11:30:00,50.0,27.8,30.15,ESE,112,1.6,2.0,42,0.00,,,0.00,VWS V14.01,2013-11-15 16:30:00,
2013-11-15 11:31:00,50.0,27.8,30.15,ESE,112,1.6,1.6,42,0.00,,,0.00,VWS V14.01,2013-11-15 16:31:00,
2013-11-15 11:35:00,50.0,27.8,30.15,ESE,112,1.6,1.6,42,0.00,,,0.00,VWS V14.01,2013-11-15 16:35:00,
2013-11-15 11:36:00,50.0,27.8,30.15,ESE,112,1.6,1.6,42,0.00,,,0.00,VWS V14.01,2013-11-15 16:36:00,
2013-11-15 11:40:00,50.0,27.8,30.15,ESE,112,1.6,1.6,42,0.00,,,0.00,VWS V14.01,2013-11-15 16:40:00,
2013-11-15 11:59:00,50.0,27.8,30.15,ESE,112,1.6,1.6,42,0.00,,,0.00,VWS V14.01,2013-11-15 16:59:00,
2013-11-15 12:00:00,53.6,27.3,30.13,SSE,158,2.5,2.5,36,0.00,,,0.00,VWS V14.01,2013-11-15 17:00:00,
2013-11-15 12:04:00,53.6,27.3,30.13,SSE,158,2.5,2.5,36,0.00,,,0.00,VWS V14.01,2013-11-15 17:04:00,
2013-11-15 12:05:00,53.6,27.3,30.13,SSE,158,2.5,2.5,36,0.00,,,0.00,VWS V14.01,2013-11-15 17:05:00,
2013-11-15 12:10:00,53.6,27.3,30.13,SSE,158,2.5,2.5,36,0.00,,,0.00,VWS V14.01,2013-11-15 17:10:00,
2013-11-15 12:28:00,53.6,27.3,30.13,SSE,158,2.5,2.5,36,0.00,,,0.00,VWS V14.01,2013-11-15 17:28:00,
2013-11-15 12:30:00,56.9,30.2,30.11,SSE,158,1.1,1.1,36,0.00,,,0.00,VWS V14.01,2013-11-15 17:30:00,
2013-11-15 12:31:00,56.9,30.2,30.11,SSE,158,1.1,1.1,36,0.00,,,0.00,VWS V14.01,2013-11-15 17:31:00,
2013-11-15 12:33:00,56.9,30.2,30.11,SSE,158,1.1,1.1,36,0.00,,,0.00,VWS V14.01,2013-11-15 17:33:00,
2013-11-15 12:35:00,56.9,30.2,30.11,SSE,158,1.1,1.1,36,0.00,,,0.00,VWS V14.01,2013-11-15 17:35:00,
2013-11-15 12:36:00,56.9,30.2,30.11,SSE,158,1.1,1.1,36,0.00,,,0.00,VWS V14.01,2013-11-15 17:36:00,
2013-11-15 12:39:00,56.9,30.2,30.11,SSE,158,1.1,1.1,36,0.00,,,0.00,VWS V14.01,2013-11-15 17:39:00,
2013-11-15 12:59:00,56.9,30.2,30.11,SSE,158,1.1,1.1,36,0.00,,,0.00,VWS V14.01,2013-11-15 17:59:00,
2013-11-15 13:00:00,57.6,30.2,30.09,South,180,2.2,2.2,35,0.00,,,0.00,VWS V14.01,2013-11-15 18:00:00,
2013-11-15 13:04:00,57.6,30.2,30.09,South,180,2.2,2.2,35,0.00,,,0.00,VWS V14.01,2013-11-15 18:04:00,
2013-11-15 13:05:00,57.6,30.2,30.09,South,180,2.2,2.2,35,0.00,,,0.00,VWS V14.01,2013-11-15 18:05:00,
2013-11-15 13:06:00,57.6,30.2,30.09,South,180,2.2,2.2,35,0.00,,,0.00,VWS V14.01,2013-11-15 18:06:00,
2013-11-15 13:10:00,57.6,30.2,30.09,South,180,2.2,2.2,35,0.00,,,0.00,VWS V14.01,2013-11-15 18:10:00,
2013-11-15 13:30:00,60.5,28.1,30.07,SSE,158,3.1,3.1,29,0.00,,,0.00,VWS V14.01,2013-11-15 18:30:00,
2013-11-15 13:35:00,60.5,28.1,30.07,SSE,158,3.1,3.1,29,0.00,,,0.00,VWS V14.01,2013-11-15 18:35:00,
2013-11-15 13:36:00,60.5,28.1,30.07,SSE,158,3.1,3.1,29,0.00,,,0.00,VWS V14.01,2013-11-15 18:36:00,
2013-11-15 13:40:00,60.5,28.1,30.07,SSE,158,3.1,3.1,29,0.00,,,0.00,VWS V14.01,2013-11-15 18:40:00,
2013-11-15 13:59:00,60.5,28.1,30.07,SSE,158,3.1,3.1,29,0.00,,,0.00,VWS V14.01,2013-11-15 18:59:00,
2013-11-15 14:00:00,59.2,30.9,30.05,East,90,4.3,4.3,34,0.00,,,0.00,VWS V14.01,2013-11-15 19:00:00,
2013-11-15 14:05:00,59.2,30.9,30.05,East,90,4.3,4.3,34,0.00,,,0.00,VWS V14.01,2013-11-15 19:05:00,
2013-11-15 14:06:00,59.2,30.9,30.05,East,90,4.3,4.3,34,0.00,,,0.00,VWS V14.01,2013-11-15 19:06:00,
2013-11-15 14:10:00,59.2,30.9,30.05,East,90,4.3,4.3,34,0.00,,,0.00,VWS V14.01,2013-11-15 19:10:00,
2013-11-15 14:30:00,60.5,34.1,30.05,South,180,1.3,4.3,37,0.00,,,0.00,VWS V14.01,2013-11-15 19:30:00,
2013-11-15 14:31:00,60.5,34.1,30.05,South,180,1.3,1.3,37,0.00,,,0.00,VWS V14.01,2013-11-15 19:31:00,
2013-11-15 14:35:00,60.5,34.1,30.05,South,180,1.3,1.3,37,0.00,,,0.00,VWS V14.01,2013-11-15 19:35:00,
2013-11-15 14:36:00,60.5,34.1,30.05,South,180,1.3,1.3,37,0.00,,,0.00,VWS V14.01,2013-11-15 19:36:00,
2013-11-15 14:40:00,60.5,34.1,30.05,South,180,1.3,1.3,37,0.00,,,0.00,VWS V14.01,2013-11-15 19:40:00,
2013-11-15 14:59:00,60.5,34.1,30.05,South,180,1.3,1.3,37,0.00,,,0.00,VWS V14.01,2013-11-15 19:59:00,
2013-11-15 15:00:00,60.1,33.1,30.04,ESE,112,1.3,1.3,36,0.00,,,0.00,VWS V14.01,2013-11-15 20:00:00,
2013-11-15 15:01:00,59.9,32.9,30.04,SE,135,1.3,1.3,36,0.00,,,0.00,VWS V14.01,2013-11-15 20:01:00,
2013-11-15 15:05:00,59.9,32.9,30.04,SE,135,1.3,1.3,36,0.00,,,0.00,VWS V14.01,2013-11-15 20:05:00,
2013-11-15 15:06:00,59.9,32.9,30.04,SE,135,1.3,1.3,36,0.00,,,0.00,VWS V14.01,2013-11-15 20:06:00,
2013-11-15 15:10:00,59.9,32.9,30.04,SE,135,1.3,1.3,36,0.00,,,0.00,VWS V14.01,2013-11-15 20:10:00,
2013-11-15 15:24:00,59.9,32.9,30.04,SE,135,1.3,1.3,36,0.00,,,0.00,VWS V14.01,2013-11-15 20:24:00,
2013-11-15 15:30:00,57.8,33.0,30.04,ESE,112,1.8,1.8,39,0.00,,,0.00,VWS V14.01,2013-11-15 20:30:00,
2013-11-15 15:31:00,57.8,33.0,30.04,ESE,112,1.8,1.8,39,0.00,,,0.00,VWS V14.01,2013-11-15 20:31:00,
2013-11-15 15:32:00,57.8,33.0,30.04,ESE,112,1.8,1.8,39,0.00,,,0.00,VWS V14.01,2013-11-15 20:32:00,
2013-11-15 15:35:00,57.8,33.0,30.04,ESE,112,1.8,1.8,39,0.00,,,0.00,VWS V14.01,2013-11-15 20:35:00,
2013-11-15 15:36:00,57.8,33.0,30.04,ESE,112,1.8,1.8,39,0.00,,,0.00,VWS V14.01,2013-11-15 20:36:00,
2013-11-15 15:38:00,57.8,33.0,30.04,ESE,112,1.8,1.8,39,0.00,,,0.00,VWS V14.01,2013-11-15 20:38:00,
2013-11-15 15:40:00,57.8,33.0,30.04,ESE,112,1.8,1.8,39,0.00,,,0.00,VWS V14.01,2013-11-15 20:40:00,
2013-11-15 15:59:00,57.8,33.0,30.04,ESE,112,1.8,1.8,39,0.00,,,0.00,VWS V14.01,2013-11-15 20:59:00,
2013-11-15 16:00:00,55.1,36.8,30.04,SW,225,0.0,1.8,50,0.00,,,0.00,VWS V14.01,2013-11-15 21:00:00,
2013-11-15 16:05:00,55.1,36.8,30.04,SW,225,0.0,0.0,50,0.00,,,0.00,VWS V14.01,2013-11-15 21:05:00,
2013-11-15 16:10:00,55.1,36.8,30.04,SW,225,0.0,0.0,50,0.00,,,0.00,VWS V14.01,2013-11-15 21:10:00,
2013-11-15 16:22:00,55.1,36.8,30.04,SW,225,0.0,0.0,50,0.00,,,0.00,VWS V14.01,2013-11-15 21:22:00,
2013-11-15 16:30:00,52.0,36.3,30.04,WNW,292,2.5,2.5,55,0.00,,,0.00,VWS V14.01,2013-11-15 21:30:00,
2013-11-15 16:31:00,52.0,36.3,30.04,WNW,292,2.5,2.5,55,0.00,,,0.00,VWS V14.01,2013-11-15 21:31:00,
2013-11-15 16:35:00,52.0,36.3,30.04,WNW,292,2.5,2.5,55,0.00,,,0.00,VWS V14.01,2013-11-15 21:35:00,
2013-11-15 16:37:00,52.0,36.3,30.04,WNW,292,2.5,2.5,55,0.00,,,0.00,VWS V14.01,2013-11-15 21:37:00,
2013-11-15 16:40:00,52.0,36.3,30.04,WNW,292,2.5,2.5,55,0.00,,,0.00,VWS V14.01,2013-11-15 21:40:00,
2013-11-15 16:57:00,52.0,36.3,30.04,WNW,292,2.5,2.5,55,0.00,,,0.00,VWS V14.01,2013-11-15 21:57:00,
2013-11-15 16:59:00,50.4,37.0,30.05,West,270,1.8,2.5,60,0.00,,,0.00,VWS V14.01,2013-11-15 21:59:00,
2013-11-15 17:00:00,50.4,37.0,30.05,West,270,1.8,2.5,60,0.00,,,0.00,VWS V14.01,2013-11-15 22:00:00,
2013-11-15 17:02:00,50.4,37.0,30.05,West,270,1.8,1.8,60,0.00,,,0.00,VWS V14.01,2013-11-15 22:02:00,
2013-11-15 17:05:00,50.4,37.0,30.05,West,270,1.8,1.8,60,0.00,,,0.00,VWS V14.01,2013-11-15 22:05:00,
2013-11-15 17:06:00,50.4,37.0,30.05,West,270,1.8,1.8,60,0.00,,,0.00,VWS V14.01,2013-11-15 22:06:00,
2013-11-15 17:07:00,50.4,37.0,30.05,West,270,1.8,1.8,60,0.00,,,0.00,VWS V14.01,2013-11-15 22:07:00,
2013-11-15 17:10:00,50.4,37.0,30.05,West,270,1.8,1.8,60,0.00,,,0.00,VWS V14.01,2013-11-15 22:10:00,
2013-11-15 17:30:00,48.2,37.0,30.05,NW,315,1.3,1.3,65,0.00,,,0.00,VWS V14.01,2013-11-15 22:30:00,
2013-11-15 17:31:00,48.2,37.0,30.05,NW,315,1.3,1.3,65,0.00,,,0.00,VWS V14.01,2013-11-15 22:31:00,
2013-11-15 17:35:00,48.2,37.0,30.05,NW,315,1.3,1.3,65,0.00,,,0.00,VWS V14.01,2013-11-15 22:35:00,
2013-11-15 17:40:00,48.2,37.0,30.05,NW,315,1.3,1.3,65,0.00,,,0.00,VWS V14.01,2013-11-15 22:40:00,
2013-11-15 17:59:00,46.6,37.0,30.05,NW,315,0.9,1.3,69,0.00,,,0.00,VWS V14.01,2013-11-15 22:59:00,
2013-11-15 18:00:00,46.6,37.0,30.05,NW,315,0.9,1.3,69,0.00,,,0.00,VWS V14.01,2013-11-15 23:00:00,
2013-11-15 18:05:00,46.6,37.0,30.05,NW,315,0.9,0.9,69,0.00,,,0.00,VWS V14.01,2013-11-15 23:05:00,
2013-11-15 18:06:00,46.6,37.0,30.05,NW,315,0.9,0.9,69,0.00,,,0.00,VWS V14.01,2013-11-15 23:06:00,
2013-11-15 18:10:00,46.6,37.0,30.05,NW,315,0.9,0.9,69,0.00,,,0.00,VWS V14.01,2013-11-15 23:10:00,
2013-11-15 18:30:00,46.4,37.9,30.06,WNW,292,0.7,0.9,72,0.00,,,0.00,VWS V14.01,2013-11-15 23:30:00,
2013-11-15 18:31:00,46.4,37.9,30.06,WNW,292,0.7,0.7,72,0.00,,,0.00,VWS V14.01,2013-11-15 23:31:00,
2013-11-15 18:35:00,46.4,37.9,30.06,WNW,292,0.7,0.7,72,0.00,,,0.00,VWS V14.01,2013-11-15 23:35:00,
2013-11-15 18:36:00,46.4,37.9,30.06,WNW,292,0.7,0.7,72,0.00,,,0.00,VWS V14.01,2013-11-15 23:36:00,
2013-11-15 18:40:00,46.4,37.9,30.06,WNW,292,0.7,0.7,72,0.00,,,0.00,VWS V14.01,2013-11-15 23:40:00,
2013-11-15 18:59:00,45.2,37.8,30.06,North,0,0.0,0.7,75,0.00,,,0.00,VWS V14.01,2013-11-15 23:59:00,
2013-11-15 19:00:00,45.2,37.8,30.06,North,0,0.0,0.7,75,0.00,,,0.00,VWS V14.01,2013-11-16 00:00:00,
2013-11-15 19:01:00,45.2,37.8,30.06,North,0,0.0,0.0,75,0.00,,,0.00,VWS V14.01,2013-11-16 00:01:00,
2013-11-15 19:04:00,45.2,37.8,30.06,North,0,0.0,0.0,75,0.00,,,0.00,VWS V14.01,2013-11-16 00:04:00,
2013-11-15 19:05:00,45.2,37.8,30.06,North,0,0.0,0.0,75,0.00,,,0.00,VWS V14.01,2013-11-16 00:05:00,
2013-11-15 19:06:00,45.2,37.8,30.06,North,0,0.0,0.0,75,0.00,,,0.00,VWS V14.01,2013-11-16 00:06:00,
2013-11-15 19:10:00,45.2,37.8,30.06,North,0,0.0,0.0,75,0.00,,,0.00,VWS V14.01,2013-11-16 00:10:00,
2013-11-15 19:30:00,44.3,40.1,30.08,NW,315,1.1,1.1,85,0.00,,,0.00,VWS V14.01,2013-11-16 00:30:00,
2013-11-15 19:35:00,44.3,40.1,30.08,NW,315,1.1,1.1,85,0.01,,,0.01,VWS V14.01,2013-11-16 00:35:00,
2013-11-15 19:40:00,44.3,40.1,30.08,NW,315,1.1,1.1,85,0.01,,,0.01,VWS V14.01,2013-11-16 00:40:00,
2013-11-15 19:45:00,44.3,40.1,30.08,NW,315,1.1,1.1,85,0.01,,,0.01,VWS V14.01,2013-11-16 00:45:00,
2013-11-15 19:59:00,44.3,40.1,30.08,NW,315,1.1,1.1,85,0.01,,,0.01,VWS V14.01,2013-11-16 00:59:00,
2013-11-15 20:00:00,43.6,39.4,30.08,NNW,338,0.0,1.1,85,0.01,,,0.01,VWS V14.01,2013-11-16 01:00:00,
2013-11-15 20:01:00,43.6,39.4,30.08,NNW,338,0.0,0.0,85,0.01,,,0.01,VWS V14.01,2013-11-16 01:01:00,
2013-11-15 20:05:00,43.6,39.4,30.08,NNW,338,0.0,0.0,85,0.01,,,0.01,VWS V14.01,2013-11-16 01:05:00,
2013-11-15 20:06:00,43.6,39.4,30.08,NNW,338,0.0,0.0,85,0.01,,,0.01,VWS V14.01,2013-11-16 01:06:00,
2013-11-15 20:10:00,43.6,39.4,30.08,NNW,338,0.0,0.0,85,0.01,,,0.01,VWS V14.01,2013-11-16 01:10:00,